Messwerte Santa Maria

Temperatur

Temperatur
°C
1573725600 8.00 8.00 20
1573729200 9.00 9.00 21
1573732800 10.00 10.00 22
1573736400 11.00 11.00 24
1573740000 12.00 12.00 24
1573743600 13.00 13.00 25
1573747200 14.00 14.00 27
1573750800 15.00 15.00 28
1573754400 16.00 16.00 29
1573758000 17.00 17.00 28
1573761600 18.00 18.00 27
1573765200 19.00 19.00 29
1573768800 20.00 20.00 26
1573772400 21.00 21.00 23
1573776000 22.00 22.00 22
1573779600 23.00 23.00 22
1573783200 0.00 0.00 21
1573786800 1.00 1.00 23
1573790400 2.00 2.00
1573794000 3.00 3.00
1573797600 4.00 4.00
1573801200 5.00 5.00
1573804800 6.00 6.00
1573808400 7.00 7.00 20

Aktuellste Messwerte

Wettercharakter
Wetter: wechselnd bewölkt
Temperatur
20 °C
Feuchtigkeit
90 %
Wind
0 km/h, -
Luftdruck
1012 hPa
Messzeit: 15. November 2019, 7.00Datenquelle: METAR

Weitere Messstationen in der Nähe

Messstation Temperatur Entfernung
Bagé - 187 km
Porto Alegre 20 °C 241 km
Porto Alegre 20 °C 245 km
Pelotas - 260 km
Paso de los Libres 17 °C 333 km
Encarnacion 20 °C 336 km
Posadas 22 °C 342 km

Wind

Windrichtung Böen Mittelwind
° km/h km/h
1573725600 8.00 7.00 - 8.00 170° 5
1573729200 9.00 8.00 - 9.00 90° 5
1573732800 10.00 9.00 - 10.00
1573736400 11.00 10.00 - 11.00 5
1573740000 12.00 11.00 - 12.00 210° 5
1573743600 13.00 12.00 - 13.00 270° 20
1573747200 14.00 13.00 - 14.00 230° 15
1573750800 15.00 14.00 - 15.00 100° 10
1573754400 16.00 15.00 - 16.00 210° 10
1573758000 17.00 16.00 - 17.00 160° 10
1573761600 18.00 17.00 - 18.00 250° 5
1573765200 19.00 18.00 - 19.00 260° 5
1573768800 20.00 19.00 - 20.00 5
1573772400 21.00 20.00 - 21.00 290° 5
1573776000 22.00 21.00 - 22.00 10° 5
1573779600 23.00 22.00 - 23.00 5
1573783200 0.00 23.00 - 0.00 5
1573786800 1.00 0.00 - 1.00 5
1573790400 2.00 1.00 - 2.00
1573794000 3.00 2.00 - 3.00
1573797600 4.00 3.00 - 4.00
1573801200 5.00 4.00 - 5.00
1573804800 6.00 5.00 - 6.00
1573808400 7.00 6.00 - 7.00 0

Ihre Wetterstation

Fehlt Ihre Wetterstation auf unserem Portal?

Schreiben Sie an network@meteonews.ch